Time;durP1;ratioP1;P1;durP2;ratioP2;P2;SDS_P1;SDS_P2;PMS_P1;PMS_P2;Temp;Humidity;BMP_temperature;BMP_pressure;BME280_temperature;BME280_humidity;BME280_pressure;Samples;Min_cycle;Max_cycle;Signal;HPM_P1;HPM_P2
2022/07/02 00:00:38;;;;;;;1.97;1.30;;;15.10;99.90;;;;;;5047221;28;20475;-74
2022/07/02 00:03:29;;;;;;;2.37;1.50;;;15.20;99.90;;;;;;5047155;28;20443;-74
2022/07/02 00:06:16;;;;;;;3.47;1.40;;;15.20;99.90;;;;;;5048191;28;20442;-74
2022/07/02 00:09:02;;;;;;;3.60;1.30;;;15.30;99.90;;;;;;5043600;28;20625;-73
2022/07/02 00:11:49;;;;;;;2.70;1.33;;;15.20;99.90;;;;;;5048316;28;20498;-74
2022/07/02 00:14:37;;;;;;;2.17;1.50;;;15.30;99.90;;;;;;5053965;28;20443;-74
2022/07/02 00:17:23;;;;;;;4.07;1.67;;;15.20;99.90;;;;;;5040723;28;20497;-73
2022/07/02 00:20:10;;;;;;;3.33;1.73;;;15.10;99.90;;;;;;5046548;28;20471;-73
2022/07/02 00:22:56;;;;;;;2.50;1.50;;;14.90;99.90;;;;;;5046184;28;20596;-74
2022/07/02 00:25:43;;;;;;;3.03;1.40;;;14.80;99.90;;;;;;5044529;28;20851;-73
2022/07/02 00:28:31;;;;;;;4.70;1.60;;;14.70;99.90;;;;;;5046042;28;20475;-74
2022/07/02 00:31:19;;;;;;;1.90;1.20;;;14.70;99.90;;;;;;5043641;28;20451;-74
2022/07/02 00:34:06;;;;;;;5.33;1.40;;;14.80;99.90;;;;;;5039420;28;20884;-74
2022/07/02 00:36:52;;;;;;;3.40;2.37;;;14.90;99.90;;;;;;5045318;28;20459;-74
2022/07/02 00:39:38;;;;;;;3.53;1.87;;;15.00;99.90;;;;;;5047553;28;20475;-73
2022/07/02 00:42:25;;;;;;;2.00;1.30;;;14.90;99.90;;;;;;5040310;28;20569;-74
2022/07/02 00:45:11;;;;;;;4.17;1.83;;;14.80;99.90;;;;;;5044723;28;20519;-73
2022/07/02 00:47:59;;;;;;;2.70;1.40;;;14.70;99.90;;;;;;5044872;28;20479;-74
2022/07/02 00:50:44;;;;;;;2.10;1.30;;;14.50;99.90;;;;;;5039504;28;20519;-74
2022/07/02 00:53:30;;;;;;;2.30;1.33;;;14.40;99.90;;;;;;5046512;28;20427;-75
2022/07/02 00:56:16;;;;;;;3.13;1.50;;;14.60;99.90;;;;;;5040892;28;21084;-73
2022/07/02 00:59:04;;;;;;;4.53;1.60;;;14.50;99.90;;;;;;5045051;28;20486;-73
2022/07/02 01:01:49;;;;;;;3.33;1.50;;;14.50;99.90;;;;;;5045131;28;20440;-76
2022/07/02 01:04:37;;;;;;;3.00;1.73;;;14.60;99.90;;;;;;5037631;28;20504;-73
2022/07/02 01:07:23;;;;;;;3.00;1.37;;;14.50;99.90;;;;;;5044894;28;20820;-73
2022/07/02 01:10:18;;;;;;;3.63;1.63;;;14.50;99.90;;;;;;5051490;28;20438;-73
2022/07/02 01:13:05;;;;;;;3.30;1.90;;;14.40;99.90;;;;;;5041768;28;20464;-76
2022/07/02 01:15:50;;;;;;;3.73;1.73;;;14.20;99.90;;;;;;5050246;28;20467;-76
2022/07/02 01:18:37;;;;;;;2.50;1.43;;;14.10;99.90;;;;;;5042775;28;20475;-76
2022/07/02 01:21:24;;;;;;;3.30;1.80;;;14.20;99.90;;;;;;5040246;28;20476;-75
2022/07/02 01:24:11;;;;;;;2.53;1.43;;;14.20;99.90;;;;;;5045068;28;20447;-76
2022/07/02 01:26:57;;;;;;;9.33;1.80;;;14.20;99.90;;;;;;5037965;28;20575;-76
2022/07/02 01:29:43;;;;;;;3.27;2.17;;;14.20;99.90;;;;;;5045616;28;20465;-76
2022/07/02 01:32:29;;;;;;;2.27;1.50;;;14.10;99.90;;;;;;5042856;28;20910;-75
2022/07/02 01:35:15;;;;;;;2.30;1.47;;;14.20;99.90;;;;;;5039911;28;20511;-76
2022/07/02 01:38:00;;;;;;;2.60;1.40;;;14.30;99.90;;;;;;5043096;28;20558;-76
2022/07/02 01:40:47;;;;;;;7.50;1.80;;;14.40;99.90;;;;;;5040721;28;20462;-76
2022/07/02 01:43:33;;;;;;;5.43;1.70;;;14.50;99.90;;;;;;5036594;28;20550;-75
2022/07/02 01:46:18;;;;;;;2.30;1.47;;;14.50;99.90;;;;;;5039940;28;20503;-75
2022/07/02 01:49:05;;;;;;;2.83;1.30;;;14.60;99.90;;;;;;5040730;28;20483;-75
2022/07/02 01:51:51;;;;;;;3.10;1.40;;;14.60;99.90;;;;;;5034376;28;20485;-76
2022/07/02 01:54:37;;;;;;;5.50;2.00;;;14.40;99.90;;;;;;5044581;28;20436;-76
2022/07/02 01:57:24;;;;;;;3.10;1.30;;;14.20;99.90;;;;;;5041706;28;20513;-75
2022/07/02 02:00:13;;;;;;;1.73;1.27;;;14.00;99.90;;;;;;5040122;28;21071;-75
2022/07/02 02:02:58;;;;;;;5.87;1.90;;;14.10;99.90;;;;;;5040684;28;20491;-76
2022/07/02 02:05:44;;;;;;;2.10;1.50;;;14.10;99.90;;;;;;5043715;28;20440;-75
2022/07/02 02:08:30;;;;;;;2.57;1.47;;;14.20;99.90;;;;;;5048833;28;20462;-76
2022/07/02 02:11:15;;;;;;;3.17;1.43;;;14.20;99.90;;;;;;5046953;28;20439;-75
2022/07/02 02:14:03;;;;;;;2.30;1.47;;;14.20;99.90;;;;;;5044043;28;20462;-75
2022/07/02 02:16:48;;;;;;;3.27;1.80;;;14.20;99.90;;;;;;5041273;28;20999;-75
2022/07/02 02:19:34;;;;;;;2.33;1.50;;;14.20;99.90;;;;;;5039632;28;20483;-76
2022/07/02 02:22:19;;;;;;;2.60;1.43;;;14.20;99.90;;;;;;5039838;28;20783;-75
2022/07/02 02:25:06;;;;;;;6.70;2.00;;;14.10;99.90;;;;;;5039660;28;20439;-76
2022/07/02 02:27:51;;;;;;;3.80;1.60;;;14.10;99.90;;;;;;5037804;28;20565;-75
2022/07/02 02:30:38;;;;;;;4.60;1.57;;;14.20;99.90;;;;;;5042778;28;20530;-75
2022/07/02 02:33:24;;;;;;;2.50;1.53;;;14.10;99.90;;;;;;5035044;28;20419;-75
2022/07/02 02:36:09;;;;;;;5.73;1.70;;;14.00;99.90;;;;;;5038818;28;20417;-75
2022/07/02 02:38:55;;;;;;;2.60;1.70;;;13.90;99.90;;;;;;5041282;28;20467;-75
2022/07/02 02:41:41;;;;;;;4.90;1.67;;;13.90;99.90;;;;;;5041192;28;20442;-75
2022/07/02 02:44:26;;;;;;;2.80;1.30;;;13.90;99.90;;;;;;5035470;28;20779;-75
2022/07/02 02:47:13;;;;;;;2.40;1.50;;;14.00;99.90;;;;;;5041037;28;20444;-75
2022/07/02 02:49:59;;;;;;;4.53;1.37;;;14.00;99.90;;;;;;5041766;28;20426;-76
2022/07/02 02:52:44;;;;;;;4.80;1.77;;;14.10;99.90;;;;;;5045728;28;20499;-75
2022/07/02 02:55:30;;;;;;;4.00;1.87;;;13.90;99.90;;;;;;5038608;28;20514;-75
2022/07/02 02:58:16;;;;;;;2.70;1.70;;;13.80;99.90;;;;;;5043202;28;20437;-75
2022/07/02 03:01:02;;;;;;;2.57;1.63;;;13.80;99.90;;;;;;5037214;28;20475;-75
2022/07/02 03:03:49;;;;;;;3.43;1.47;;;13.80;99.90;;;;;;5040685;28;20470;-75
2022/07/02 03:06:35;;;;;;;6.03;1.50;;;13.70;99.90;;;;;;5038402;28;20445;-75
2022/07/02 03:09:20;;;;;;;4.87;1.70;;;13.60;99.90;;;;;;5042120;28;20518;-75
2022/07/02 03:12:06;;;;;;;3.60;1.30;;;13.80;99.90;;;;;;5039765;28;20554;-76
2022/07/02 03:14:52;;;;;;;4.63;1.60;;;13.80;99.90;;;;;;5038975;28;20497;-75
2022/07/02 03:17:38;;;;;;;4.40;2.13;;;13.90;99.90;;;;;;5040391;28;20450;-75
2022/07/02 03:20:25;;;;;;;4.27;1.70;;;13.80;99.90;;;;;;5042489;28;20625;-76
2022/07/02 03:23:11;;;;;;;2.60;1.40;;;13.60;99.90;;;;;;5041618;28;20439;-76
2022/07/02 03:25:57;;;;;;;2.00;1.50;;;13.50;99.90;;;;;;5037715;28;20859;-75
2022/07/02 03:28:42;;;;;;;3.53;1.47;;;13.40;99.90;;;;;;5065188;28;20441;-75
2022/07/02 03:31:28;;;;;;;2.50;1.53;;;13.60;99.90;;;;;;5039991;28;20595;-76
2022/07/02 03:34:14;;;;;;;2.43;1.70;;;13.60;99.90;;;;;;5038249;28;20472;-75
2022/07/02 03:37:01;;;;;;;1.67;1.27;;;13.70;99.90;;;;;;5044396;28;20443;-75
2022/07/02 03:39:46;;;;;;;3.07;2.03;;;13.80;99.90;;;;;;5039269;28;20434;-75
2022/07/02 03:42:32;;;;;;;6.03;2.10;;;13.80;99.90;;;;;;5035783;28;20779;-75
2022/07/02 03:45:18;;;;;;;4.13;1.60;;;13.80;99.90;;;;;;5041063;28;20556;-75
2022/07/02 03:48:04;;;;;;;4.77;1.47;;;13.70;99.90;;;;;;5044655;28;20467;-75
2022/07/02 03:50:49;;;;;;;5.07;1.90;;;13.70;99.90;;;;;;5037149;28;20882;-75
2022/07/02 03:53:36;;;;;;;3.20;1.33;;;13.60;99.90;;;;;;5041573;28;20519;-76
2022/07/02 03:56:22;;;;;;;3.87;1.57;;;13.60;99.90;;;;;;5035140;28;20419;-76
2022/07/02 03:59:08;;;;;;;2.63;1.40;;;13.70;99.90;;;;;;5038513;28;20463;-76
2022/07/02 04:01:53;;;;;;;2.37;1.57;;;13.70;99.90;;;;;;5041898;28;20439;-75
2022/07/02 04:04:39;;;;;;;4.90;1.73;;;13.80;99.90;;;;;;5041082;28;20505;-76
2022/07/02 04:07:24;;;;;;;4.77;1.63;;;13.90;99.90;;;;;;5040274;28;20447;-76
2022/07/02 04:10:12;;;;;;;2.10;1.50;;;13.80;99.90;;;;;;5042466;28;20447;-76
2022/07/02 04:12:58;;;;;;;2.70;1.77;;;13.70;99.90;;;;;;5049616;28;20421;-76
2022/07/02 04:15:43;;;;;;;2.30;1.53;;;13.70;99.90;;;;;;5047649;28;20574;-75
2022/07/02 04:18:29;;;;;;;2.90;1.90;;;13.70;99.90;;;;;;5041060;28;20470;-75
2022/07/02 04:21:15;;;;;;;2.53;1.70;;;13.70;99.90;;;;;;5037235;28;20522;-75
2022/07/02 04:24:00;;;;;;;2.40;1.70;;;13.90;99.90;;;;;;5041064;28;20561;-75
2022/07/02 04:26:47;;;;;;;4.03;1.50;;;14.00;99.90;;;;;;5039687;28;20422;-76
2022/07/02 04:29:33;;;;;;;2.17;1.40;;;13.90;99.90;;;;;;5044563;28;20558;-75
2022/07/02 04:32:19;;;;;;;2.03;1.57;;;13.90;99.90;;;;;;5045137;28;20425;-75
2022/07/02 04:35:05;;;;;;;3.37;1.87;;;13.90;99.90;;;;;;5036777;28;20533;-75
2022/07/02 04:37:51;;;;;;;4.23;1.60;;;13.90;99.90;;;;;;5043509;28;20438;-75
2022/07/02 04:40:36;;;;;;;2.67;1.80;;;14.00;99.90;;;;;;5047139;28;20467;-75
2022/07/02 04:43:23;;;;;;;3.80;2.00;;;14.00;99.90;;;;;;5035397;28;20445;-75
2022/07/02 04:46:09;;;;;;;2.57;1.50;;;14.10;99.90;;;;;;5047821;28;20421;-75
2022/07/02 04:48:55;;;;;;;2.87;1.60;;;14.20;99.90;;;;;;5045817;28;20462;-75
2022/07/02 04:51:40;;;;;;;3.30;2.13;;;14.20;99.90;;;;;;5041121;28;20456;-75
2022/07/02 04:54:26;;;;;;;2.77;1.90;;;14.30;99.90;;;;;;5038612;28;20452;-74
2022/07/02 04:57:11;;;;;;;2.20;1.90;;;14.30;99.90;;;;;;5048207;28;20501;-74
2022/07/02 04:59:58;;;;;;;2.23;1.80;;;14.40;99.90;;;;;;5042601;28;20448;-74
2022/07/02 05:02:45;;;;;;;3.97;2.10;;;14.60;99.90;;;;;;5046802;28;20523;-75
2022/07/02 05:05:30;;;;;;;4.00;2.20;;;14.70;99.90;;;;;;5040953;28;20546;-74
2022/07/02 05:08:16;;;;;;;3.20;2.30;;;14.80;99.90;;;;;;5044468;28;20487;-74
2022/07/02 05:11:01;;;;;;;3.53;1.87;;;14.90;99.90;;;;;;5045755;28;20440;-74
2022/07/02 05:13:47;;;;;;;3.13;1.83;;;15.00;99.90;;;;;;5040695;28;20467;-74
2022/07/02 05:16:34;;;;;;;4.07;1.83;;;15.10;99.90;;;;;;5040531;28;20987;-75
2022/07/02 05:19:20;;;;;;;6.37;2.20;;;15.20;99.90;;;;;;5042667;28;20438;-74
2022/07/02 05:22:06;;;;;;;3.10;2.00;;;15.30;99.90;;;;;;5045656;28;20536;-75
2022/07/02 05:24:51;;;;;;;4.33;2.30;;;15.30;99.90;;;;;;5041577;28;21014;-74
2022/07/02 05:27:37;;;;;;;3.90;2.10;;;15.40;99.90;;;;;;5041697;28;20942;-74
2022/07/02 05:30:22;;;;;;;2.90;1.80;;;15.50;99.90;;;;;;5040439;28;21032;-75
2022/07/02 05:33:10;;;;;;;4.93;2.10;;;15.50;99.90;;;;;;5039772;28;22740;-75
2022/07/02 05:35:55;;;;;;;4.17;2.23;;;15.60;99.90;;;;;;5046399;28;20444;-76
2022/07/02 05:38:41;;;;;;;3.30;2.40;;;15.60;99.90;;;;;;5042133;28;20467;-75
2022/07/02 05:41:27;;;;;;;4.27;2.37;;;15.80;99.90;;;;;;5041811;28;21012;-76
2022/07/02 05:44:12;;;;;;;3.83;1.97;;;15.90;99.90;;;;;;5045239;28;20426;-74
2022/07/02 05:46:58;;;;;;;2.80;2.00;;;16.00;99.90;;;;;;5045048;28;20506;-75
2022/07/02 05:49:45;;;;;;;4.87;2.20;;;16.10;99.90;;;;;;5035929;28;20467;-75
2022/07/02 05:52:31;;;;;;;5.53;1.83;;;16.20;99.90;;;;;;5041611;28;20418;-75
2022/07/02 05:55:17;;;;;;;3.53;2.10;;;16.40;99.90;;;;;;5039681;28;20451;-75
2022/07/02 05:58:02;;;;;;;3.50;1.90;;;16.50;99.90;;;;;;5043991;28;20465;-76
2022/07/02 06:00:48;;;;;;;8.97;2.10;;;16.60;99.90;;;;;;5039744;28;20422;-76
2022/07/02 06:03:33;;;;;;;5.00;2.10;;;16.70;99.90;;;;;;5036618;28;20550;-75
2022/07/02 06:09:24;;;;;;;3.30;1.80;;;16.90;99.90;;;;;;5038008;28;20468;-75
2022/07/02 06:12:10;;;;;;;5.17;1.90;;;17.10;99.90;;;;;;5038376;28;20454;-75
2022/07/02 06:14:56;;;;;;;7.43;2.50;;;17.10;99.90;;;;;;5038905;28;20456;-75
2022/07/02 06:17:41;;;;;;;5.57;2.30;;;17.20;99.90;;;;;;5038590;28;20417;-76
2022/07/02 06:20:27;;;;;;;4.20;1.67;;;17.30;99.90;;;;;;5039199;28;20576;-76
2022/07/02 06:23:16;;;;;;;4.37;1.60;;;17.50;99.90;;;;;;5042047;28;20422;-75
2022/07/02 06:26:01;;;;;;;4.17;1.63;;;17.60;99.90;;;;;;5036064;28;20547;-76
2022/07/02 06:28:47;;;;;;;3.07;1.90;;;17.60;99.90;;;;;;5038672;28;20558;-75
2022/07/02 06:31:32;;;;;;;2.63;1.90;;;17.70;99.90;;;;;;5039126;28;21066;-75
2022/07/02 06:34:19;;;;;;;2.43;1.80;;;17.80;99.90;;;;;;5035449;28;20413;-75
2022/07/02 06:37:06;;;;;;;3.07;1.43;;;17.90;99.90;;;;;;5042260;28;20964;-75
2022/07/02 06:39:53;;;;;;;2.83;1.60;;;18.00;99.90;;;;;;5042235;28;20515;-75
2022/07/02 06:42:39;;;;;;;6.23;1.70;;;18.10;99.90;;;;;;5033236;28;20451;-76
2022/07/02 06:45:24;;;;;;;3.20;2.10;;;18.20;99.90;;;;;;5035138;28;20411;-76
2022/07/02 06:48:10;;;;;;;3.33;1.70;;;18.40;99.90;;;;;;5037872;28;20555;-75
2022/07/02 06:50:56;;;;;;;4.33;1.53;;;18.50;99.90;;;;;;5045942;28;20955;-76
2022/07/02 06:53:41;;;;;;;2.77;1.23;;;18.50;99.90;;;;;;5040707;28;21221;-76
2022/07/02 06:56:31;;;;;;;3.23;1.70;;;18.70;99.90;;;;;;5043579;28;20968;-76
2022/07/02 06:59:17;;;;;;;3.70;1.60;;;18.80;99.90;;;;;;5032534;28;21023;-76
2022/07/02 07:02:03;;;;;;;2.90;1.70;;;18.80;99.90;;;;;;5043572;28;20868;-75
2022/07/02 07:04:49;;;;;;;4.00;1.43;;;18.90;99.90;;;;;;5042654;28;20459;-75
2022/07/02 07:07:34;;;;;;;3.50;1.60;;;19.10;99.90;;;;;;5041787;28;20438;-75
2022/07/02 07:10:20;;;;;;;2.10;1.30;;;19.20;99.90;;;;;;5038135;28;20464;-76
2022/07/02 07:13:07;;;;;;;1.73;1.00;;;19.40;99.90;;;;;;5040749;28;20452;-76
2022/07/02 07:15:52;;;;;;;3.80;1.30;;;19.50;99.90;;;;;;5038958;28;20945;-76
2022/07/02 07:18:38;;;;;;;3.63;1.60;;;19.60;99.90;;;;;;5045382;28;20630;-75
2022/07/02 07:21:24;;;;;;;2.87;1.43;;;19.50;98.50;;;;;;5038480;28;20472;-75
2022/07/02 07:24:10;;;;;;;1.90;1.13;;;19.70;99.90;;;;;;5043207;28;20916;-75
2022/07/02 07:26:57;;;;;;;3.30;1.30;;;19.80;99.90;;;;;;5038842;28;20964;-74
2022/07/02 07:29:44;;;;;;;2.43;1.50;;;19.90;96.00;;;;;;5040024;28;20495;-74
2022/07/02 07:32:30;;;;;;;2.67;1.40;;;20.00;95.20;;;;;;5035924;28;20882;-76
2022/07/02 07:35:15;;;;;;;3.83;1.37;;;20.20;95.20;;;;;;5044942;28;20818;-75
2022/07/02 07:38:02;;;;;;;2.20;1.40;;;20.20;90.50;;;;;;5038520;28;20446;-76
2022/07/02 07:40:48;;;;;;;2.53;1.10;;;20.40;91.00;;;;;;5038422;28;20523;-75
2022/07/02 07:43:33;;;;;;;2.70;1.13;;;20.50;87.20;;;;;;5037395;28;20436;-76
2022/07/02 07:46:21;;;;;;;2.80;1.43;;;20.60;90.50;;;;;;5039347;28;20462;-76
2022/07/02 07:49:07;;;;;;;6.20;1.40;;;20.70;87.50;;;;;;5032066;28;20619;-76
2022/07/02 07:51:52;;;;;;;2.00;1.33;;;20.70;81.30;;;;;;5036001;28;20436;-76
2022/07/02 07:54:38;;;;;;;3.27;1.70;;;20.80;84.40;;;;;;5032203;28;20452;-75
2022/07/02 07:57:23;;;;;;;6.13;1.27;;;20.90;85.70;;;;;;5032697;28;20448;-75
2022/07/02 08:00:10;;;;;;;3.23;1.10;;;21.00;80.90;;;;;;5038171;28;20479;-76
2022/07/02 08:02:57;;;;;;;2.20;1.17;;;21.10;86.10;;;;;;5035774;28;20809;-76
2022/07/02 08:05:43;;;;;;;3.77;1.00;;;21.20;83.90;;;;;;5044889;28;20438;-76
2022/07/02 08:08:29;;;;;;;2.47;1.23;;;21.30;81.00;;;;;;5040638;28;20997;-76
2022/07/02 08:11:15;;;;;;;5.40;1.10;;;21.40;81.80;;;;;;5041808;28;20453;-76
2022/07/02 08:14:00;;;;;;;1.93;1.10;;;21.40;74.90;;;;;;5040042;28;20805;-76
2022/07/02 08:16:46;;;;;;;2.43;1.30;;;21.50;71.50;;;;;;5043386;28;20812;-76
2022/07/02 08:19:33;;;;;;;2.57;1.13;;;21.50;65.10;;;;;;5046968;28;21048;-76
2022/07/02 08:22:19;;;;;;;3.60;0.93;;;21.50;60.40;;;;;;5038415;28;20474;-76
2022/07/02 08:25:07;;;;;;;3.80;0.87;;;21.50;56.70;;;;;;5043757;28;20450;-76
2022/07/02 08:27:53;;;;;;;7.70;1.07;;;21.60;55.00;;;;;;5050115;28;20475;-75
2022/07/02 08:30:39;;;;;;;5.10;1.00;;;21.70;58.30;;;;;;5038836;28;20443;-75
2022/07/02 08:33:24;;;;;;;1.80;0.80;;;21.80;57.70;;;;;;5037628;28;20440;-76
2022/07/02 08:36:11;;;;;;;1.63;0.70;;;21.80;54.10;;;;;;5046918;28;20443;-75
2022/07/02 08:38:57;;;;;;;1.87;0.80;;;21.90;53.80;;;;;;5039957;28;20459;-75
2022/07/02 08:41:44;;;;;;;2.60;1.10;;;21.90;54.70;;;;;;5038736;28;22489;-75
2022/07/02 08:44:32;;;;;;;1.50;0.70;;;22.10;55.60;;;;;;5046668;28;20759;-76
2022/07/02 08:47:20;;;;;;;2.40;0.80;;;22.10;45.80;;;;;;5040645;28;20951;-75
2022/07/02 08:50:08;;;;;;;3.20;0.90;;;22.10;47.10;;;;;;5039656;28;20534;-76
2022/07/02 08:52:55;;;;;;;5.60;0.83;;;22.10;48.10;;;;;;5043063;28;20440;-75
2022/07/02 08:55:42;;;;;;;1.60;0.70;;;22.20;46.60;;;;;;5040695;28;20463;-76
2022/07/02 08:58:28;;;;;;;2.33;1.00;;;22.20;43.60;;;;;;5042200;28;20455;-75
2022/07/02 09:01:15;;;;;;;3.03;0.90;;;22.30;48.30;;;;;;5037385;28;21038;-76
2022/07/02 09:04:03;;;;;;;2.53;0.83;;;22.40;47.50;;;;;;5046135;28;20586;-76
2022/07/02 09:06:48;;;;;;;1.70;0.73;;;22.50;48.10;;;;;;5042572;28;20434;-76
2022/07/02 09:09:36;;;;;;;2.23;0.77;;;22.50;42.90;;;;;;5041247;28;20465;-76
2022/07/02 09:12:23;;;;;;;5.27;0.80;;;22.40;45.20;;;;;;5034752;28;20460;-76
2022/07/02 09:15:10;;;;;;;3.80;1.00;;;22.40;46.50;;;;;;5040625;28;20547;-76
2022/07/02 09:17:56;;;;;;;1.47;0.70;;;22.50;49.20;;;;;;5039155;28;20712;-75
2022/07/02 09:20:42;;;;;;;1.93;0.87;;;22.50;42.90;;;;;;5039970;28;20464;-75
2022/07/02 09:23:27;;;;;;;1.80;0.80;;;22.70;47.90;;;;;;5043470;28;20467;-76
2022/07/02 09:26:20;;;;;;;3.03;0.90;;;22.90;51.80;;;;;;5043978;28;20813;-75
2022/07/02 09:29:06;;;;;;;5.80;0.70;;;23.10;49.40;;;;;;5044423;28;20474;-76
2022/07/02 09:31:51;;;;;;;4.23;0.80;;;23.10;43.20;;;;;;5036323;28;20546;-75
2022/07/02 09:34:43;;;;;;;2.13;1.00;;;23.20;45.40;;;;;;5042082;28;20444;-76
2022/07/02 09:37:29;;;;;;;2.20;0.87;;;23.30;44.00;;;;;;5043492;28;20542;-76
2022/07/02 09:40:15;;;;;;;1.70;0.70;;;23.20;40.20;;;;;;5044515;28;21052;-76
2022/07/02 09:43:02;;;;;;;2.33;1.10;;;23.10;39.40;;;;;;5038986;28;20573;-75
2022/07/02 09:45:48;;;;;;;4.73;1.10;;;23.20;43.00;;;;;;5042448;28;20434;-76
2022/07/02 09:48:33;;;;;;;2.73;0.80;;;23.30;43.10;;;;;;5043843;28;20995;-76
2022/07/02 09:51:19;;;;;;;2.20;0.77;;;23.50;41.40;;;;;;5040408;28;20582;-75
2022/07/02 09:54:07;;;;;;;1.90;0.60;;;23.50;39.30;;;;;;5043902;28;20437;-76
2022/07/02 09:56:54;;;;;;;1.40;0.60;;;23.60;40.00;;;;;;5043232;28;20517;-76
2022/07/02 09:59:41;;;;;;;2.10;0.70;;;23.70;37.70;;;;;;5034984;28;20951;-76
2022/07/02 10:02:27;;;;;;;2.53;0.90;;;23.80;37.50;;;;;;5052082;28;20486;-75
2022/07/02 10:05:12;;;;;;;1.90;1.03;;;23.90;36.80;;;;;;5042354;28;20447;-76
2022/07/02 10:07:59;;;;;;;2.40;1.40;;;24.00;35.20;;;;;;5039015;28;20535;-76
2022/07/02 10:10:46;;;;;;;2.23;1.00;;;24.10;34.50;;;;;;5034737;28;20503;-76
2022/07/02 10:13:33;;;;;;;3.40;1.00;;;24.20;35.30;;;;;;5040542;28;20845;-76
2022/07/02 10:16:22;;;;;;;2.43;0.70;;;24.30;35.80;;;;;;5042116;28;20823;-76
2022/07/02 10:19:09;;;;;;;2.30;0.80;;;24.30;34.20;;;;;;5038446;28;20484;-75
2022/07/02 10:21:55;;;;;;;2.10;1.00;;;24.40;36.50;;;;;;5042034;28;20885;-76
2022/07/02 10:24:42;;;;;;;2.20;0.90;;;24.40;35.20;;;;;;5033383;28;20427;-76
2022/07/02 10:27:29;;;;;;;3.50;0.93;;;24.50;34.00;;;;;;5034119;28;20811;-76
2022/07/02 10:30:17;;;;;;;1.80;1.00;;;24.60;33.80;;;;;;5035123;28;22195;-78
2022/07/02 10:33:16;;;;;;;2.63;0.80;;;24.50;33.30;;;;;;5047597;28;20436;-77
2022/07/02 10:36:04;;;;;;;2.30;1.03;;;24.40;33.60;;;;;;5041906;28;20464;-78
2022/07/02 10:38:58;;;;;;;2.73;1.10;;;24.20;31.60;;;;;;5038925;28;20821;-77
2022/07/02 10:41:44;;;;;;;1.57;0.70;;;24.20;33.10;;;;;;5036557;28;20499;-77
2022/07/02 10:44:36;;;;;;;1.63;0.77;;;24.30;37.70;;;;;;5041688;28;20562;-77
2022/07/02 10:47:26;;;;;;;2.33;1.00;;;24.40;35.80;;;;;;5048817;28;20514;-77
2022/07/02 10:50:13;;;;;;;1.60;0.63;;;24.50;33.20;;;;;;5045873;28;20444;-78
2022/07/02 10:53:06;;;;;;;5.50;0.90;;;24.50;34.00;;;;;;5047342;28;20440;-78
2022/07/02 10:55:59;;;;;;;1.80;0.60;;;24.70;34.90;;;;;;5051057;28;20547;-78
2022/07/02 10:58:46;;;;;;;2.00;0.70;;;24.90;39.60;;;;;;5036178;28;20463;-76
2022/07/02 11:01:31;;;;;;;1.90;0.90;;;25.10;35.50;;;;;;5033734;28;20456;-77
2022/07/02 11:04:22;;;;;;;4.30;0.63;;;25.20;35.40;;;;;;5036690;28;20829;-76
2022/07/02 11:07:11;;;;;;;1.70;0.70;;;25.30;32.90;;;;;;5044920;28;20456;-76
2022/07/02 11:10:07;;;;;;;4.13;0.63;;;25.40;33.60;;;;;;5036379;28;20474;-76
2022/07/02 11:12:57;;;;;;;3.10;0.90;;;25.50;32.10;;;;;;5039324;28;20464;-76
2022/07/02 11:15:43;;;;;;;2.37;0.90;;;25.60;33.80;;;;;;5036221;28;20447;-76
2022/07/02 11:18:34;;;;;;;2.40;0.83;;;25.70;32.10;;;;;;5042416;28;20988;-76
2022/07/02 11:21:21;;;;;;;1.73;0.87;;;25.70;31.50;;;;;;5034733;28;20490;-76
2022/07/02 11:24:10;;;;;;;2.80;0.90;;;25.70;32.10;;;;;;5036565;28;21193;-76
2022/07/02 11:26:56;;;;;;;2.20;0.70;;;25.80;31.20;;;;;;5038811;28;20449;-76
2022/07/02 11:29:52;;;;;;;2.13;0.80;;;25.90;31.90;;;;;;5067130;23;20499;-72
2022/07/02 11:32:37;;;;;;;2.10;0.97;;;25.70;32.20;;;;;;5059369;28;20837;-73
2022/07/02 11:35:24;;;;;;;1.83;0.70;;;25.70;31.30;;;;;;5053653;28;20447;-73
2022/07/02 11:38:09;;;;;;;1.50;0.50;;;25.80;30.50;;;;;;5050361;28;21031;-73
2022/07/02 11:40:56;;;;;;;2.27;0.80;;;25.90;30.40;;;;;;5045093;28;20539;-72
2022/07/02 11:43:44;;;;;;;3.10;1.10;;;26.00;31.40;;;;;;5045557;28;21004;-75
2022/07/02 11:46:30;;;;;;;2.37;0.90;;;26.20;31.00;;;;;;5048574;28;20483;-75
2022/07/02 11:49:18;;;;;;;4.67;1.20;;;26.40;32.40;;;;;;5041052;28;20885;-74
2022/07/02 11:52:06;;;;;;;6.23;3.23;;;26.50;31.30;;;;;;5045967;28;20595;-75
2022/07/02 11:54:52;;;;;;;26.90;24.03;;;26.40;31.70;;;;;;5045033;28;20455;-75
2022/07/02 11:57:39;;;;;;;8.53;6.70;;;26.50;31.80;;;;;;5045066;28;20514;-75
2022/07/02 12:00:31;;;;;;;7.30;5.40;;;26.70;31.40;;;;;;5043529;28;20459;-75
2022/07/02 12:03:16;;;;;;;46.53;5.43;;;26.80;29.90;;;;;;5053098;28;20853;-75
2022/07/02 12:06:02;;;;;;;5.33;1.10;;;26.80;29.40;;;;;;5052201;28;20462;-75
2022/07/02 12:08:51;;;;;;;1.63;0.77;;;26.80;29.50;;;;;;5053014;28;20502;-75
2022/07/02 12:11:39;;;;;;;5.70;1.47;;;26.80;28.40;;;;;;5046292;28;20533;-75
2022/07/02 12:14:29;;;;;;;9.80;1.13;;;26.80;27.70;;;;;;5050462;28;20444;-75
2022/07/02 12:17:15;;;;;;;15.33;2.53;;;26.70;29.40;;;;;;5045283;28;20948;-75
2022/07/02 12:20:01;;;;;;;2.70;0.97;;;26.70;30.60;;;;;;5048147;28;20462;-75
2022/07/02 12:22:52;;;;;;;2.43;1.07;;;26.70;30.90;;;;;;5051937;28;20447;-75
2022/07/02 12:25:45;;;;;;;2.83;1.30;;;26.90;30.00;;;;;;5044206;28;20816;-76
2022/07/02 12:31:44;;;;;;;5.27;1.17;;;27.20;28.00;;;;;;5046802;28;20443;-76
2022/07/02 12:34:38;;;;;;;6.37;1.03;;;27.40;27.40;;;;;;5052262;28;20447;-75
2022/07/02 12:37:26;;;;;;;2.47;0.80;;;27.50;27.50;;;;;;5049270;28;20447;-75
2022/07/02 12:40:14;;;;;;;1.83;0.70;;;27.40;25.60;;;;;;5045606;28;20472;-75
2022/07/02 12:42:59;;;;;;;3.10;0.80;;;27.40;27.00;;;;;;5049526;28;20999;-75
2022/07/02 12:45:45;;;;;;;2.67;0.83;;;27.50;26.90;;;;;;5054160;28;20439;-75
2022/07/02 12:48:42;;;;;;;2.27;1.20;;;27.50;27.20;;;;;;5049116;28;20586;-75
2022/07/02 12:51:27;;;;;;;2.20;0.83;;;27.60;28.20;;;;;;5054322;28;20526;-75
2022/07/02 12:54:13;;;;;;;5.27;0.70;;;27.70;27.30;;;;;;5051131;28;20610;-75
2022/07/02 12:56:58;;;;;;;2.47;0.90;;;27.90;28.00;;;;;;5055495;28;20447;-76
2022/07/02 12:59:45;;;;;;;8.20;6.27;;;28.10;27.00;;;;;;5047813;28;21070;-75
2022/07/02 13:02:31;;;;;;;3.83;2.47;;;28.20;24.50;;;;;;5054455;28;20439;-75
2022/07/02 13:05:17;;;;;;;2.30;0.80;;;28.00;25.10;;;;;;5053498;28;20443;-75
2022/07/02 13:08:03;;;;;;;2.00;1.10;;;28.00;24.90;;;;;;5052307;28;20803;-76
2022/07/02 13:10:51;;;;;;;1.80;1.00;;;28.00;25.20;;;;;;5051861;28;20509;-75
2022/07/02 13:13:36;;;;;;;2.17;1.10;;;28.00;26.60;;;;;;5057603;28;20439;-76
2022/07/02 13:16:22;;;;;;;3.20;0.87;;;28.10;25.60;;;;;;5047416;28;20439;-75
2022/07/02 13:19:08;;;;;;;2.77;1.00;;;28.20;24.80;;;;;;5050367;28;20797;-75
2022/07/02 13:21:55;;;;;;;2.93;1.20;;;28.40;26.30;;;;;;5052458;28;20455;-76
2022/07/02 13:24:41;;;;;;;2.33;1.10;;;28.40;24.70;;;;;;5046410;28;20522;-75
2022/07/02 13:27:27;;;;;;;2.80;0.80;;;28.50;27.00;;;;;;5046695;28;20431;-75
2022/07/02 13:30:16;;;;;;;2.10;0.93;;;28.30;23.80;;;;;;5059923;28;20508;-76
2022/07/02 13:33:01;;;;;;;2.13;0.80;;;28.10;24.00;;;;;;5050844;28;20455;-75
2022/07/02 13:35:47;;;;;;;2.47;1.00;;;27.90;24.80;;;;;;5049530;28;20450;-75
2022/07/02 13:38:34;;;;;;;3.90;0.97;;;28.00;25.80;;;;;;5047728;28;20523;-75
2022/07/02 13:41:20;;;;;;;1.80;0.80;;;28.30;25.30;;;;;;5054406;28;20474;-75
2022/07/02 13:44:05;;;;;;;2.27;1.00;;;28.40;24.10;;;;;;5051708;28;20490;-75
2022/07/02 13:46:51;;;;;;;3.10;0.93;;;28.60;26.10;;;;;;5051609;28;20919;-75
2022/07/02 13:49:37;;;;;;;4.57;0.90;;;28.70;25.40;;;;;;5046703;28;20467;-75
2022/07/02 13:52:22;;;;;;;1.80;0.87;;;28.70;24.00;;;;;;5059625;28;20501;-75
2022/07/02 13:55:10;;;;;;;4.93;1.20;;;28.80;24.70;;;;;;5049456;28;20553;-74
2022/07/02 13:57:56;;;;;;;1.70;0.77;;;28.50;22.40;;;;;;5047815;28;20439;-75
2022/07/02 14:00:42;;;;;;;9.07;1.23;;;28.70;25.70;;;;;;5043151;28;20443;-75
2022/07/02 14:03:28;;;;;;;3.53;1.80;;;28.90;25.30;;;;;;5048733;28;20557;-74
2022/07/02 14:06:14;;;;;;;2.87;1.83;;;29.30;26.40;;;;;;5057669;28;20505;-76
2022/07/02 14:08:59;;;;;;;5.93;1.27;;;29.60;23.40;;;;;;5041042;28;20794;-75
2022/07/02 14:11:46;;;;;;;2.50;1.20;;;29.80;23.60;;;;;;5057683;28;20820;-75
2022/07/02 14:14:32;;;;;;;19.20;17.57;;;30.00;22.10;;;;;;5051108;28;21262;-74
2022/07/02 14:17:18;;;;;;;2.10;1.30;;;29.90;22.10;;;;;;5054850;28;20446;-76
2022/07/02 14:20:04;;;;;;;3.70;0.87;;;30.00;22.10;;;;;;5048950;28;20650;-76
2022/07/02 14:22:50;;;;;;;3.80;1.40;;;30.20;24.30;;;;;;5050388;28;20452;-75
2022/07/02 14:25:35;;;;;;;2.50;1.17;;;30.30;22.40;;;;;;5049264;28;20471;-75
2022/07/02 14:28:22;;;;;;;2.10;1.03;;;30.30;22.30;;;;;;5046963;28;20960;-74
2022/07/02 14:31:08;;;;;;;2.43;1.10;;;30.40;23.50;;;;;;5052265;28;20575;-75